createdAt,value
2019-01-09T00:02:00.841Z,88.68
2019-01-09T00:04:29.494Z,88.79
2019-01-09T00:06:57.030Z,87.63
2019-01-09T00:09:24.550Z,87.62
2019-01-09T00:11:52.075Z,87.87
2019-01-09T00:14:19.553Z,87.95
2019-01-09T00:16:46.999Z,87.46
2019-01-09T00:19:14.477Z,88.66
2019-01-09T00:21:42.047Z,88.57
2019-01-09T00:24:09.558Z,89.09
2019-01-09T00:26:36.980Z,88.57
2019-01-09T00:29:04.442Z,89.24
2019-01-09T00:31:31.958Z,89.86
2019-01-09T00:33:59.906Z,90.42
2019-01-09T00:36:27.568Z,90.25
2019-01-09T00:38:54.972Z,89.94
2019-01-09T00:41:22.417Z,88.92
2019-01-09T00:43:49.924Z,88.61
2019-01-09T00:46:18.420Z,88.84
2019-01-09T00:48:45.860Z,88.77
2019-01-09T00:51:13.409Z,87.89
2019-01-09T00:53:40.876Z,87.40
2019-01-09T00:56:08.299Z,87.16
2019-01-09T00:58:35.813Z,86.90
2019-01-09T01:01:03.259Z,86.86
2019-01-09T01:03:51.243Z,87.31
2019-01-09T01:06:35.099Z,86.80
2019-01-09T01:09:26.239Z,86.56
2019-01-09T01:12:19.249Z,87.17
2019-01-09T01:14:54.374Z,86.20
2019-01-09T01:17:31.726Z,86.58
2019-01-09T01:20:14.055Z,86.23
2019-01-09T01:23:08.003Z,85.95
2019-01-09T01:25:51.958Z,87.50
2019-01-09T01:28:45.040Z,88.19
2019-01-09T01:31:22.070Z,87.88
2019-01-09T01:34:05.173Z,88.50
2019-01-09T01:36:36.280Z,89.14
2019-01-09T01:39:14.315Z,89.33
2019-01-09T01:41:43.155Z,89.35
2019-01-09T01:44:11.456Z,88.89
2019-01-09T01:46:57.294Z,89.48
2019-01-09T01:49:35.453Z,89.82
2019-01-09T01:52:21.564Z,89.62
2019-01-09T01:54:54.551Z,90.31
2019-01-09T01:57:43.149Z,90.38
2019-01-09T02:00:29.696Z,90.68
2019-01-09T02:03:17.942Z,90.32
2019-01-09T02:05:46.313Z,90.98
2019-01-09T02:08:21.694Z,91.22
2019-01-09T02:11:14.360Z,92.30
2019-01-09T02:13:44.422Z,90.82
2019-01-09T02:16:32.734Z,90.26
2019-01-09T02:19:05.953Z,90.83
2019-01-09T02:21:35.707Z,90.01
2019-01-09T02:24:06.293Z,90.65
2019-01-09T02:26:40.033Z,90.33
2019-01-09T02:35:15.453Z,90.24
2019-01-09T02:37:43.531Z,90.67
2019-01-09T02:40:10.998Z,91.20
2019-01-09T02:42:38.435Z,91.93
2019-01-09T02:45:08.056Z,92.02
2019-01-09T02:47:35.589Z,91.50
2019-01-09T02:50:03.040Z,91.79
2019-01-09T02:52:30.545Z,91.64
2019-01-09T02:54:58.035Z,91.95
2019-01-09T02:57:25.479Z,92.28
2019-01-09T02:59:52.939Z,91.26
2019-01-09T03:02:20.395Z,90.69
2019-01-09T03:04:47.817Z,92.23
2019-01-09T03:07:15.301Z,92.48
2019-01-09T03:09:42.726Z,91.29
2019-01-09T03:12:10.195Z,90.11
2019-01-09T03:14:37.644Z,89.49
2019-01-09T03:17:05.125Z,90.89
2019-01-09T03:19:32.608Z,92.21
2019-01-09T03:22:00.103Z,92.90
2019-01-09T03:24:27.531Z,92.67
2019-01-09T03:26:54.970Z,92.25
2019-01-09T03:29:22.435Z,91.57
2019-01-09T03:31:49.942Z,91.64
2019-01-09T03:34:17.392Z,90.97
2019-01-09T03:36:44.891Z,91.43
2019-01-09T03:39:12.368Z,90.62
2019-01-09T03:41:39.855Z,90.67
2019-01-09T03:44:07.342Z,91.59
2019-01-09T03:46:34.815Z,91.05
2019-01-09T03:49:02.252Z,90.77
2019-01-09T03:51:29.730Z,90.66
2019-01-09T03:53:57.194Z,90.59
2019-01-09T03:56:24.731Z,90.81
2019-01-09T03:58:52.282Z,91.57
2019-01-09T04:01:20.607Z,90.68
2019-01-09T04:03:48.094Z,90.92
2019-01-09T04:06:15.538Z,91.17
2019-01-09T04:08:43.158Z,90.42
2019-01-09T04:11:10.613Z,90.17
2019-01-09T04:13:38.055Z,91.02
2019-01-09T04:16:05.510Z,90.46
2019-01-09T04:18:33.038Z,91.21
2019-01-09T04:21:00.582Z,91.28
2019-01-09T04:23:28.185Z,90.47
2019-01-09T04:25:55.635Z,90.43
2019-01-09T04:28:23.078Z,90.85
2019-01-09T04:30:50.509Z,91.37
2019-01-09T04:33:18.037Z,91.86
2019-01-09T04:35:45.520Z,92.15
2019-01-09T04:38:12.987Z,92.55
2019-01-09T04:40:40.443Z,92.47
2019-01-09T04:43:07.912Z,92.18
2019-01-09T04:45:35.398Z,91.56
2019-01-09T04:48:02.958Z,91.32
2019-01-09T04:50:39.213Z,91.12
2019-01-09T04:53:06.676Z,91.33
2019-01-09T04:55:34.170Z,90.75
2019-01-09T04:58:01.647Z,90.92
2019-01-09T05:00:29.136Z,90.42
2019-01-09T05:02:56.610Z,90.92
2019-01-09T05:05:24.062Z,91.32
2019-01-09T05:07:51.525Z,91.42
2019-01-09T05:10:19.035Z,90.61
2019-01-09T05:12:46.609Z,90.32
2019-01-09T05:15:14.052Z,89.54
2019-01-09T05:17:41.529Z,89.07
2019-01-09T05:20:08.970Z,88.61
2019-01-09T05:22:36.509Z,89.18
2019-01-09T05:25:03.952Z,89.38
2019-01-09T05:27:31.468Z,88.98
2019-01-09T05:29:58.909Z,89.08
2019-01-09T05:32:26.380Z,89.19
2019-01-09T05:34:54.665Z,88.91
2019-01-09T05:37:22.190Z,89.16
2019-01-09T05:39:49.637Z,89.24
2019-01-09T05:42:17.243Z,88.84
2019-01-09T05:44:44.730Z,88.68
2019-01-09T05:47:12.244Z,88.39
2019-01-09T05:49:39.736Z,87.98
2019-01-09T05:52:07.273Z,88.84
2019-01-09T05:54:34.756Z,89.61
2019-01-09T05:57:02.243Z,90.15
2019-01-09T05:59:29.692Z,90.47
2019-01-09T06:01:57.150Z,91.37
2019-01-09T06:04:25.274Z,91.45
2019-01-09T06:06:52.828Z,92.43
2019-01-09T06:09:20.244Z,92.93
2019-01-09T06:11:47.793Z,92.89
2019-01-09T06:14:15.364Z,92.86
2019-01-09T06:16:43.472Z,92.83
2019-01-09T06:19:10.925Z,92.20
2019-01-09T06:21:38.681Z,93.10
2019-01-09T06:24:07.390Z,93.29
2019-01-09T06:26:35.245Z,93.05
2019-01-09T06:29:02.783Z,92.46
2019-01-09T06:31:30.273Z,91.90
2019-01-09T06:33:57.786Z,91.21
2019-01-09T06:36:25.278Z,90.88
2019-01-09T06:38:53.149Z,90.06
2019-01-09T06:41:21.711Z,91.02
2019-01-09T06:43:49.164Z,91.57
2019-01-09T06:46:16.699Z,91.02
2019-01-09T06:48:44.157Z,91.75
2019-01-09T06:51:11.663Z,91.34
2019-01-09T06:53:39.130Z,91.33
2019-01-09T06:56:06.643Z,91.36
2019-01-09T06:58:34.118Z,91.29
2019-01-09T07:01:01.609Z,91.79
2019-01-09T07:03:29.085Z,92.05
2019-01-09T07:05:56.691Z,92.24
2019-01-09T07:08:24.534Z,92.00
2019-01-09T07:10:52.974Z,92.65
2019-01-09T07:13:21.235Z,92.45
2019-01-09T07:15:49.764Z,92.72
2019-01-09T07:18:17.905Z,93.02
2019-01-09T07:20:45.897Z,93.18
2019-01-09T07:23:15.321Z,92.91
2019-01-09T07:25:42.847Z,93.10
2019-01-09T07:28:10.560Z,93.37
2019-01-09T07:30:38.086Z,93.25
2019-01-09T07:33:06.584Z,93.57
2019-01-09T07:35:34.077Z,93.77
2019-01-09T07:38:01.590Z,93.87
2019-01-09T07:40:29.128Z,93.72
2019-01-09T07:42:57.172Z,93.96
2019-01-09T07:45:24.761Z,94.06
2019-01-09T07:47:52.247Z,94.17
2019-01-09T07:50:20.417Z,94.10
2019-01-09T07:52:50.009Z,93.90
2019-01-09T07:55:18.265Z,93.99
2019-01-09T07:57:46.695Z,93.48
2019-01-09T08:00:14.178Z,93.99
2019-01-09T08:02:42.992Z,93.89
2019-01-09T08:05:11.098Z,94.10
2019-01-09T08:07:40.111Z,94.15
2019-01-09T08:10:08.301Z,94.19
2019-01-09T08:12:36.646Z,93.98
2019-01-09T08:15:04.184Z,94.08
2019-01-09T08:17:31.716Z,93.58
2019-01-09T08:20:01.466Z,93.98
2019-01-09T08:22:29.078Z,94.35
2019-01-09T08:24:56.701Z,94.03
2019-01-09T08:27:24.216Z,93.45
2019-01-09T08:29:51.726Z,93.75
2019-01-09T08:32:20.096Z,93.90
2019-01-09T08:34:49.743Z,93.37
2019-01-09T08:37:17.262Z,93.04
2019-01-09T08:39:44.897Z,92.79
2019-01-09T08:42:12.495Z,93.47
2019-01-09T08:44:40.481Z,93.12
2019-01-09T08:47:08.926Z,93.02
2019-01-09T08:49:37.250Z,93.28
2019-01-09T08:52:05.874Z,92.51
2019-01-09T08:54:33.470Z,92.48
2019-01-09T08:57:01.257Z,93.01
2019-01-09T08:59:29.821Z,92.68
2019-01-09T09:01:57.520Z,91.85
2019-01-09T09:04:24.986Z,91.67
2019-01-09T09:06:52.531Z,91.77
2019-01-09T09:09:21.022Z,92.05
2019-01-09T09:11:48.478Z,91.70
2019-01-09T09:14:21.275Z,91.36
2019-01-09T09:16:49.111Z,90.80
2019-01-09T09:19:17.540Z,90.41
2019-01-09T09:21:45.808Z,90.62
2019-01-09T09:24:14.372Z,90.78
2019-01-09T09:26:42.969Z,90.25
2019-01-09T09:29:11.884Z,89.80
2019-01-09T09:31:42.248Z,89.91
2019-01-09T09:34:11.477Z,89.99
2019-01-09T09:36:39.125Z,89.51
2019-01-09T09:39:09.514Z,89.46
2019-01-09T09:41:37.157Z,89.70
2019-01-09T09:44:04.860Z,89.94
2019-01-09T09:46:32.479Z,89.60
2019-01-09T09:49:03.092Z,89.23
2019-01-09T09:51:30.915Z,88.90
2019-01-09T09:53:58.513Z,88.97
2019-01-09T09:56:26.299Z,88.83
2019-01-09T09:58:54.691Z,88.96
2019-01-09T10:01:23.337Z,88.83
2019-01-09T10:03:50.926Z,88.47
2019-01-09T10:06:18.543Z,88.91
2019-01-09T10:08:46.973Z,89.34
2019-01-09T10:11:14.645Z,89.94
2019-01-09T10:13:42.261Z,89.05
2019-01-09T10:16:09.946Z,89.39
2019-01-09T10:18:38.766Z,89.53
2019-01-09T10:21:07.623Z,89.36
2019-01-09T10:23:36.933Z,88.79
2019-01-09T10:26:05.175Z,88.71
2019-01-09T10:28:34.021Z,88.52
2019-01-09T10:31:02.898Z,88.91
2019-01-09T10:33:30.584Z,88.83
2019-01-09T10:35:59.180Z,89.04
2019-01-09T10:38:27.622Z,89.11
2019-01-09T10:40:55.701Z,87.84
2019-01-09T10:43:23.279Z,87.21
2019-01-09T10:45:51.956Z,86.08
2019-01-09T10:48:19.892Z,86.32
2019-01-09T10:50:48.588Z,86.26
2019-01-09T10:53:16.749Z,85.46
2019-01-09T10:55:44.901Z,84.55
2019-01-09T10:58:12.624Z,85.23
2019-01-09T11:00:40.336Z,85.18
2019-01-09T11:03:08.372Z,84.84
2019-01-09T11:08:06.710Z,84.71
2019-01-09T11:10:34.880Z,83.68
2019-01-09T11:13:02.365Z,83.12
2019-01-09T11:15:29.840Z,82.48
2019-01-09T11:18:15.249Z,82.16
2019-01-09T11:20:42.796Z,82.47
2019-01-09T11:23:10.515Z,81.42
2019-01-09T11:25:38.105Z,80.34
2019-01-09T11:28:05.777Z,81.41
2019-01-09T11:30:33.343Z,80.38
2019-01-09T11:33:01.383Z,80.37
2019-01-09T11:35:28.996Z,78.88
2019-01-09T11:37:57.732Z,77.69
2019-01-09T11:40:25.955Z,78.22
2019-01-09T11:42:53.812Z,78.34
2019-01-09T11:45:22.228Z,77.95
2019-01-09T11:47:51.038Z,78.86
2019-01-09T11:50:18.978Z,77.51
2019-01-09T11:52:46.789Z,76.30
2019-01-09T11:55:15.283Z,77.27
2019-01-09T11:57:42.840Z,74.28
2019-01-09T12:00:25.761Z,75.39
2019-01-09T12:02:53.260Z,76.18
2019-01-09T12:05:20.702Z,75.87
2019-01-09T12:07:48.239Z,74.58
2019-01-09T12:10:16.744Z,75.06
2019-01-09T12:12:44.754Z,75.10
2019-01-09T12:15:14.534Z,74.60
2019-01-09T12:17:42.159Z,73.20
2019-01-09T12:20:11.356Z,73.57
2019-01-09T12:22:38.852Z,74.47
2019-01-09T12:25:06.925Z,73.35
2019-01-09T12:27:34.815Z,73.95
2019-01-09T12:30:06.786Z,72.44
2019-01-09T12:32:34.307Z,71.63
2019-01-09T12:35:02.018Z,72.53
2019-01-09T12:37:29.647Z,70.99
2019-01-09T12:39:57.194Z,72.11
2019-01-09T12:42:26.494Z,71.17
2019-01-09T12:44:54.509Z,71.67
2019-01-09T12:47:22.128Z,70.18
2019-01-09T12:49:50.648Z,70.54
2019-01-09T12:52:18.753Z,69.92
2019-01-09T12:54:48.411Z,72.64
2019-01-09T12:57:17.470Z,72.06
2019-01-09T12:59:45.896Z,70.28
2019-01-09T13:02:14.426Z,70.19
2019-01-09T13:04:42.496Z,69.05
2019-01-09T13:07:09.980Z,68.13
2019-01-09T13:09:38.547Z,70.23
2019-01-09T13:12:07.121Z,69.46
2019-01-09T13:14:34.596Z,67.04
2019-01-09T13:17:11.626Z,67.32
2019-01-09T13:19:30.481Z,69.55
2019-01-09T13:21:58.585Z,68.72
2019-01-09T13:24:26.146Z,66.86
2019-01-09T13:26:53.593Z,68.10
2019-01-09T13:29:21.042Z,67.11
2019-01-09T13:31:49.667Z,67.04
2019-01-09T13:34:18.037Z,67.82
2019-01-09T13:36:46.853Z,67.73
2019-01-09T13:39:14.400Z,68.86
2019-01-09T13:41:42.846Z,67.94
2019-01-09T13:44:10.404Z,68.02
2019-01-09T13:46:38.489Z,68.78
2019-01-09T13:49:06.179Z,68.06
2019-01-09T13:51:33.660Z,67.66
2019-01-09T13:54:01.307Z,67.89
2019-01-09T13:56:29.530Z,67.05
2019-01-09T13:58:57.001Z,68.92
2019-01-09T14:01:24.472Z,68.55
2019-01-09T14:03:51.953Z,68.10
2019-01-09T14:06:20.096Z,67.21
2019-01-09T14:08:47.562Z,67.83
2019-01-09T14:11:15.823Z,68.49
2019-01-09T14:13:43.407Z,68.02
2019-01-09T14:16:10.888Z,65.79
2019-01-09T14:18:38.332Z,67.02
2019-01-09T14:21:05.883Z,66.86
2019-01-09T14:23:33.397Z,66.61
2019-01-09T14:26:00.930Z,67.12
2019-01-09T14:28:28.455Z,68.48
2019-01-09T14:30:56.011Z,67.30
2019-01-09T14:33:23.439Z,67.83
2019-01-09T14:35:50.875Z,66.92
2019-01-09T14:38:18.370Z,65.73
2019-01-09T14:40:45.834Z,67.45
2019-01-09T14:43:13.806Z,66.94
2019-01-09T14:45:43.516Z,67.32
2019-01-09T14:48:10.248Z,67.01
2019-01-09T14:50:37.783Z,66.12
2019-01-09T14:53:05.237Z,67.27
2019-01-09T14:55:32.701Z,66.42
2019-01-09T14:58:00.140Z,67.56
2019-01-09T15:00:27.603Z,67.55
2019-01-09T15:02:55.149Z,66.82
2019-01-09T15:05:22.579Z,67.49
2019-01-09T15:07:50.631Z,67.79
2019-01-09T15:19:37.157Z,68.81
2019-01-09T15:22:04.796Z,68.53
2019-01-09T15:24:33.555Z,68.43
2019-01-09T15:27:00.093Z,68.74
2019-01-09T15:29:28.492Z,69.09
2019-01-09T15:31:59.666Z,68.17
2019-01-09T15:34:27.199Z,69.00
2019-01-09T15:36:54.698Z,69.21
2019-01-09T15:39:22.131Z,68.90
2019-01-09T15:41:49.800Z,69.20
2019-01-09T15:44:17.474Z,69.31
2019-01-09T15:46:44.789Z,68.23
2019-01-09T15:49:12.252Z,68.67
2019-01-09T15:51:39.845Z,68.56
2019-01-09T15:54:07.874Z,68.74
2019-01-09T16:01:06.700Z,68.82
2019-01-09T16:03:34.222Z,67.95
2019-01-09T16:06:01.739Z,68.86
2019-01-09T16:08:29.329Z,68.57
2019-01-09T16:10:56.843Z,68.16
2019-01-09T16:13:25.463Z,68.42
2019-01-09T16:15:52.941Z,68.65
2019-01-09T16:18:20.434Z,67.93
2019-01-09T16:20:48.658Z,68.41
2019-01-09T16:23:16.245Z,67.89
2019-01-09T16:25:44.108Z,68.71
2019-01-09T16:28:11.608Z,68.55
2019-01-09T16:30:39.055Z,69.19
2019-01-09T16:33:06.509Z,67.64
2019-01-09T16:35:35.316Z,69.65
2019-01-09T16:38:02.771Z,68.96
2019-01-09T16:40:30.188Z,69.12
2019-01-09T16:42:57.674Z,68.46
2019-01-09T16:45:25.114Z,68.66
2019-01-09T16:47:52.547Z,68.21
2019-01-09T16:50:20.028Z,69.72
2019-01-09T16:52:47.472Z,68.79
2019-01-09T16:55:15.598Z,69.11
2019-01-09T16:57:43.091Z,70.40
2019-01-09T17:00:19.124Z,69.35
2019-01-09T17:02:46.611Z,70.31
2019-01-09T17:05:14.451Z,69.80
2019-01-09T17:07:41.917Z,69.96
2019-01-09T17:10:11.175Z,69.95
2019-01-09T17:12:38.703Z,69.21
2019-01-09T17:15:06.131Z,69.15
2019-01-09T17:17:33.618Z,70.08
2019-01-09T17:20:01.121Z,69.88
2019-01-09T17:22:28.654Z,70.46
2019-01-09T17:24:56.107Z,71.10
2019-01-09T17:27:23.563Z,70.48
2019-01-09T17:29:51.088Z,70.40
2019-01-09T17:32:18.564Z,70.17
2019-01-09T17:34:48.430Z,70.69
2019-01-09T17:37:16.020Z,71.01
2019-01-09T17:39:44.689Z,69.71
2019-01-09T17:42:12.264Z,70.18
2019-01-09T17:44:39.751Z,69.28
2019-01-09T17:47:07.218Z,70.71
2019-01-09T17:49:34.715Z,69.20
2019-01-09T17:52:02.199Z,70.46
2019-01-09T17:54:29.666Z,68.23
2019-01-09T17:56:57.143Z,68.67
2019-01-09T17:59:24.606Z,68.36
2019-01-09T18:01:52.107Z,68.51
2019-01-09T18:04:19.574Z,68.12
2019-01-09T18:06:47.089Z,68.61
2019-01-09T18:09:15.101Z,68.42
2019-01-09T18:11:42.570Z,68.71
2019-01-09T18:14:10.027Z,68.58
2019-01-09T18:16:37.500Z,68.17
2019-01-09T18:19:04.960Z,68.49
2019-01-09T18:21:32.473Z,68.22
2019-01-09T18:23:59.924Z,67.55
2019-01-09T18:26:27.422Z,67.38
2019-01-09T18:28:54.907Z,68.08
2019-01-09T18:31:24.794Z,68.46
2019-01-09T18:43:29.860Z,69.15
2019-01-09T18:46:09.692Z,69.62
2019-01-09T18:48:44.755Z,69.55
2019-01-09T18:51:15.882Z,70.14
2019-01-09T18:53:43.363Z,70.09
2019-01-09T18:56:10.830Z,69.15
2019-01-09T19:06:35.463Z,69.37
2019-01-09T19:09:01.698Z,68.94
2019-01-09T19:11:29.195Z,68.56
2019-01-09T19:13:56.685Z,68.49
2019-01-09T19:16:24.179Z,68.60
2019-01-09T19:18:51.643Z,67.85
2019-01-09T19:21:19.132Z,68.70
2019-01-09T19:23:46.611Z,68.79
2019-01-09T19:26:14.092Z,68.56
2019-01-09T19:28:42.716Z,68.13
2019-01-09T19:31:10.254Z,68.24
2019-01-09T19:33:37.717Z,68.24
2019-01-09T19:36:05.170Z,68.64
2019-01-09T19:38:32.631Z,68.78
2019-01-09T19:41:00.110Z,69.37
2019-01-09T19:43:27.606Z,69.02
2019-01-09T19:45:55.073Z,69.03
2019-01-09T19:48:22.541Z,68.80
2019-01-09T19:50:50.936Z,68.92
2019-01-09T19:53:18.416Z,68.01
2019-01-09T19:55:45.892Z,68.17
2019-01-09T19:58:14.150Z,68.04
2019-01-09T20:00:42.896Z,68.12
2019-01-09T20:03:10.384Z,68.22
2019-01-09T20:05:37.834Z,68.36
2019-01-09T20:08:05.333Z,68.59
2019-01-09T20:10:32.828Z,68.13
2019-01-09T20:13:00.265Z,68.41
2019-01-09T20:15:27.771Z,67.66
2019-01-09T20:17:55.248Z,68.20
2019-01-09T20:20:22.714Z,67.54
2019-01-09T20:22:51.263Z,68.64
2019-01-09T20:25:18.687Z,68.85
2019-01-09T20:27:46.222Z,68.70
2019-01-09T20:30:13.615Z,69.37
2019-01-09T20:32:42.259Z,69.20
2019-01-09T20:35:09.654Z,69.41
2019-01-09T20:37:37.172Z,70.52
2019-01-09T20:40:05.861Z,69.87
2019-01-09T20:42:33.311Z,69.77
2019-01-09T20:45:01.802Z,69.25
2019-01-09T20:47:29.357Z,69.44
2019-01-09T20:49:56.801Z,69.20
2019-01-09T20:52:24.256Z,69.16
2019-01-09T20:54:51.759Z,69.32
2019-01-09T20:57:22.965Z,69.56
2019-01-09T20:59:50.501Z,69.69
2019-01-09T21:02:18.708Z,71.00
2019-01-09T21:04:50.024Z,70.49
2019-01-09T21:07:17.480Z,70.18
2019-01-09T21:09:45.006Z,70.31
2019-01-09T21:12:12.491Z,69.76
2019-01-09T21:14:40.024Z,69.50
2019-01-09T21:17:07.515Z,69.64
2019-01-09T21:19:34.941Z,69.82
2019-01-09T21:22:02.401Z,70.18
2019-01-09T21:24:29.853Z,69.76
2019-01-09T21:26:58.529Z,69.53
2019-01-09T21:29:27.160Z,69.90
2019-01-09T21:31:56.443Z,69.68
2019-01-09T21:34:23.967Z,70.46
2019-01-09T21:36:52.585Z,70.96
2019-01-09T21:39:21.164Z,71.11
2019-01-09T21:41:53.324Z,70.10
2019-01-09T21:44:19.415Z,70.10
2019-01-09T21:46:46.935Z,69.99
2019-01-09T21:49:14.385Z,69.93
2019-01-09T21:51:41.881Z,70.25
2019-01-09T21:54:10.557Z,71.01
2019-01-09T21:56:38.055Z,71.95
2019-01-09T21:59:05.564Z,71.17
2019-01-09T22:01:33.067Z,71.07
2019-01-09T22:04:00.554Z,70.78
2019-01-09T22:06:28.016Z,70.27
2019-01-09T22:08:55.475Z,70.67
2019-01-09T22:11:22.975Z,70.62
2019-01-09T22:13:50.431Z,70.29
2019-01-09T22:16:17.916Z,70.07
2019-01-09T22:18:45.396Z,70.63
2019-01-09T22:21:12.883Z,70.40
2019-01-09T22:23:41.573Z,70.34
2019-01-09T22:26:09.035Z,69.95
2019-01-09T22:28:36.502Z,70.06
2019-01-09T22:31:05.034Z,69.39
2019-01-09T22:33:32.649Z,69.62
2019-01-09T22:36:00.163Z,69.80
2019-01-09T22:38:27.793Z,69.65
2019-01-09T22:40:55.311Z,69.24
2019-01-09T22:43:23.782Z,69.68
2019-01-09T22:45:51.444Z,70.17
2019-01-09T22:48:18.929Z,69.37
2019-01-09T22:50:47.579Z,70.46
2019-01-09T22:53:15.069Z,69.98
2019-01-09T22:55:43.448Z,70.01
2019-01-09T22:58:11.159Z,69.35
2019-01-09T23:00:38.851Z,68.78
2019-01-09T23:03:07.099Z,69.16
2019-01-09T23:05:34.567Z,69.31
2019-01-09T23:08:02.138Z,69.55
2019-01-09T23:10:29.578Z,69.47
2019-01-09T23:12:57.340Z,69.10
2019-01-09T23:15:25.625Z,69.72
2019-01-09T23:17:54.280Z,69.27
2019-01-09T23:20:22.456Z,68.67
2019-01-09T23:22:49.946Z,68.89
2019-01-09T23:25:17.440Z,68.49
2019-01-09T23:27:45.027Z,69.56
2019-01-09T23:30:12.474Z,69.17
2019-01-09T23:32:40.606Z,68.97
2019-01-09T23:35:08.089Z,68.65
2019-01-09T23:37:35.523Z,68.86
2019-01-09T23:40:04.623Z,69.21
2019-01-09T23:42:32.165Z,69.57
2019-01-09T23:45:00.836Z,70.29
2019-01-09T23:47:28.318Z,69.85
2019-01-09T23:49:55.780Z,69.48
2019-01-09T23:52:23.906Z,69.78
2019-01-09T23:54:51.421Z,69.23
2019-01-09T23:57:18.901Z,69.03
2019-01-09T23:59:46.363Z,69.87
